Saturday, January 20, 2018, 10:06 AM EST
Back to Local

KILG, Wilmington New Castle Co

Location: New Castle, DE, United States Lat: 39.667
Local Time: 10:06 AM EST (15:06 GMT) Lon: -75.6
Time Zone: US/Eastern Elev: 78 ft

Show me the last for .
Show Coded

Time T Td Feel RH Dir Speed Gust Alt SLP Vis Weather Sky Remarks
2018-01-20 09:51 45 25 40 45 240° 10 - 29.99 29.99 10 CLR None
2018-01-20 08:51 37 22 30 53 230° 9 - 29.99 29.99 10 CLR None
2018-01-20 07:51 30 20 26 65 230° 3 - 29.98 29.98 10 CLR None
2018-01-20 06:51 27 19 22 71 190° 5 - 29.97 29.97 10 CLR 6-hr Min Temp (7am): 25.0°F
6-hr Max Temp (7am): 33.1°F
2018-01-20 05:51 28 20 22 71 200° 6 - 29.96 29.96 10 CLR None
2018-01-20 04:51 27 19 22 71 240° 5 - 29.97 29.97 10 CLR None
2018-01-20 03:51 28 19 23 68 210° 5 - 29.97 29.97 10 CLR None
2018-01-20 01:51 30 20 25 65 220° 5 - 29.98 29.98 10 CLR None
2018-01-20 00:51 33 19 29 55 230° 5 - 29.99 29.99 10 CLR 6-hr Min Temp (1am): 32.0°F
6-hr Max Temp (1am): 39.0°F
2018-01-19 23:51 34 19 30 53 230° 5 - 30.02 30.02 10 CLR 24-hr Min Temp (12am): 19.9°F
24-hr Max Temp (12am): 46.9°F
2018-01-19 22:51 34 19 29 53 240° 6 - 30.03 30.03 10 CLR None
2018-01-19 21:51 36 19 32 49 230° 5 - 30.03 30.03 10 CLR None
2018-01-19 20:51 38 18 36 43 210° 3 - 30.04 30.03 10 CLR None
2018-01-19 19:51 38 19 34 46 200° 5 - 30.04 30.04 10 CLR None
2018-01-19 18:51 39 19 36 44 210° 5 - 30.04 30.04 10 CLR 6-hr Min Temp (7pm): 39.0°F
6-hr Max Temp (7pm): 46.9°F
2018-01-19 17:51 42 18 40 37 230° 3 - 30.03 30.03 10 CLR None
2018-01-19 16:51 43 18 39 36 230° 6 - 30.03 30.03 10 CLR None
2018-01-19 15:51 46 18 42 32 230° 7 - 30.03 30.03 10 CLR None
2018-01-19 14:51 45 18 39 33 210° 12 - 30.04 30.04 10 CLR None
2018-01-19 13:51 47 18 42 31 250° 10 - 30.04 30.04 10 CLR None
2018-01-19 12:51 44 17 36 33 280° 10 20 30.07 30.07 10 CLR 6-hr Min Temp (1pm): 19.9°F
6-hr Max Temp (1pm): 44.1°F
2018-01-19 11:51 42 17 35 35 280° 13 - 30.10 30.10 10 CLR None
2018-01-19 10:51 41 17 36 37 250° 8 - 30.13 30.13 10 CLR None

Support USWX by starting your Amazon purchase here.